createdAt,value
2018-12-24T00:00:49.744Z,7.10
2018-12-24T00:03:58.598Z,7.10
2018-12-24T00:06:46.445Z,7.10
2018-12-24T00:12:35.520Z,7.10
2018-12-24T00:15:43.178Z,7.00
2018-12-24T00:18:33.452Z,7.00
2018-12-24T00:21:22.868Z,7.00
2018-12-24T00:24:10.750Z,7.00
2018-12-24T00:26:58.654Z,7.10
2018-12-24T00:29:46.757Z,7.00
2018-12-24T00:32:53.979Z,6.90
2018-12-24T00:35:41.938Z,6.90
2018-12-24T00:38:49.202Z,6.90
2018-12-24T00:41:37.736Z,6.80
2018-12-24T00:44:28.532Z,6.90
2018-12-24T00:47:51.950Z,6.90
2018-12-24T00:50:34.842Z,6.80
2018-12-24T00:53:23.522Z,6.90
2018-12-24T00:56:32.199Z,6.90
2018-12-24T00:59:20.074Z,6.90
2018-12-24T01:02:13.002Z,6.80
2018-12-24T01:05:00.891Z,6.80
2018-12-24T01:07:50.672Z,6.80
2018-12-24T01:10:38.561Z,6.60
2018-12-24T01:13:27.938Z,6.60
2018-12-24T01:16:15.818Z,6.70
2018-12-24T01:19:03.942Z,6.60
2018-12-24T01:22:12.544Z,6.60
2018-12-24T01:25:00.400Z,6.60
2018-12-24T01:27:48.304Z,6.60
2018-12-24T01:30:36.908Z,6.60
2018-12-24T01:33:44.124Z,6.50
2018-12-24T01:36:36.114Z,6.60
2018-12-24T01:39:25.616Z,6.50
2018-12-24T01:45:02.337Z,6.50
2018-12-24T01:47:53.087Z,6.50
2018-12-24T01:50:42.471Z,6.50
2018-12-24T01:53:51.217Z,6.50
2018-12-24T01:56:42.257Z,6.50
2018-12-24T01:59:36.092Z,6.50
2018-12-24T02:02:33.699Z,6.50
2018-12-24T02:05:02.800Z,6.50
2018-12-24T02:07:56.189Z,6.60
2018-12-24T02:10:44.087Z,6.60
2018-12-24T02:16:20.715Z,6.50
2018-12-24T02:19:08.583Z,6.60
2018-12-24T02:21:57.725Z,6.60
2018-12-24T02:24:47.107Z,6.60
2018-12-24T02:27:56.245Z,6.60
2018-12-24T02:30:44.105Z,6.60
2018-12-24T02:33:31.981Z,6.60
2018-12-24T02:36:20.828Z,6.60
2018-12-24T02:39:09.953Z,6.60
2018-12-24T02:41:59.333Z,6.60
2018-12-24T02:45:06.550Z,6.60
2018-12-24T02:47:54.511Z,6.60
2018-12-24T02:51:01.811Z,6.60
2018-12-24T02:54:10.415Z,6.60
2018-12-24T02:56:58.259Z,6.70
2018-12-24T02:59:46.142Z,6.70
2018-12-24T03:02:16.157Z,6.70
2018-12-24T03:05:21.214Z,6.60
2018-12-24T03:07:55.835Z,6.70
2018-12-24T03:11:03.163Z,6.70
2018-12-24T03:13:51.123Z,6.70
2018-12-24T03:16:59.870Z,6.70
2018-12-24T03:19:47.749Z,6.70
2018-12-24T03:22:35.633Z,6.70
2018-12-24T03:25:23.502Z,6.70
2018-12-24T03:28:11.640Z,6.80
2018-12-24T03:31:01.339Z,6.80
2018-12-24T03:33:50.834Z,6.80
2018-12-24T03:39:35.571Z,6.80
2018-12-24T03:42:04.586Z,6.80
2018-12-24T03:45:11.835Z,6.90
2018-12-24T03:48:02.876Z,6.80
2018-12-24T03:50:52.284Z,6.80
2018-12-24T03:53:22.231Z,6.90
2018-12-24T03:56:11.594Z,6.80
2018-12-24T03:59:18.788Z,6.80
2018-12-24T04:02:06.687Z,6.80
2018-12-24T04:04:57.222Z,6.80
2018-12-24T04:07:46.852Z,6.80
2018-12-24T04:10:36.248Z,6.80
2018-12-24T04:13:24.366Z,6.90
2018-12-24T04:16:31.588Z,6.90
2018-12-24T04:19:21.496Z,6.90
2018-12-24T04:21:51.307Z,6.80
2018-12-24T04:24:58.517Z,6.90
2018-12-24T04:28:07.387Z,6.80
2018-12-24T04:30:55.309Z,6.90
2018-12-24T04:33:44.710Z,6.90
2018-12-24T04:36:32.565Z,6.90
2018-12-24T04:39:20.463Z,6.90
2018-12-24T04:42:08.403Z,6.90
2018-12-24T04:45:15.669Z,6.90
2018-12-24T04:48:05.073Z,6.90
2018-12-24T04:50:53.474Z,6.90
2018-12-24T04:53:41.503Z,6.90
2018-12-24T04:56:48.726Z,6.90
2018-12-24T04:59:41.298Z,6.80
2018-12-24T05:02:29.496Z,6.90
2018-12-24T05:05:17.358Z,6.80
2018-12-24T05:08:06.762Z,6.80
2018-12-24T05:10:56.289Z,6.80
2018-12-24T05:13:47.498Z,6.80
2018-12-24T05:17:18.812Z,6.80
2018-12-24T05:20:08.153Z,6.70
2018-12-24T05:23:15.382Z,6.70
2018-12-24T05:26:05.105Z,6.60
2018-12-24T05:28:53.100Z,6.70
2018-12-24T05:31:40.943Z,6.70
2018-12-24T05:34:48.144Z,6.70
2018-12-24T05:37:57.090Z,6.70
2018-12-24T05:40:25.650Z,6.80
2018-12-24T05:43:14.104Z,6.80
2018-12-24T05:46:23.082Z,6.80
2018-12-24T05:49:31.997Z,6.80
2018-12-24T05:52:19.891Z,6.90
2018-12-24T05:55:07.794Z,7.00
2018-12-24T05:57:56.832Z,7.00
2018-12-24T06:00:44.787Z,7.00
2018-12-24T06:04:07.958Z,7.00
2018-12-24T06:06:57.387Z,7.00
2018-12-24T06:09:27.280Z,7.00
2018-12-24T06:12:36.576Z,7.00
2018-12-24T06:15:25.864Z,7.00
2018-12-24T06:18:13.717Z,7.10
2018-12-24T06:21:03.113Z,7.00
2018-12-24T06:23:52.531Z,7.10
2018-12-24T06:26:41.911Z,7.00
2018-12-24T06:29:29.844Z,7.00
2018-12-24T06:32:19.285Z,7.00
2018-12-24T06:35:29.308Z,7.10
2018-12-24T06:37:57.876Z,7.00
2018-12-24T06:40:47.272Z,7.00
2018-12-24T06:43:35.158Z,7.00
2018-12-24T06:46:23.557Z,6.90
2018-12-24T06:49:32.326Z,6.90
2018-12-24T06:52:02.953Z,6.90
2018-12-24T06:54:51.845Z,6.90
2018-12-24T06:57:59.029Z,6.90
2018-12-24T07:01:07.891Z,6.90
2018-12-24T07:03:55.723Z,6.90
2018-12-24T07:06:43.614Z,6.90
2018-12-24T07:09:31.499Z,6.90
2018-12-24T07:12:19.472Z,6.90
2018-12-24T07:15:26.671Z,6.90
2018-12-24T07:18:14.570Z,6.90
2018-12-24T07:21:02.800Z,6.90
2018-12-24T07:24:10.047Z,6.90
2018-12-24T07:26:58.598Z,6.90
2018-12-24T07:29:47.055Z,7.00
2018-12-24T07:32:54.241Z,6.90
2018-12-24T07:35:43.754Z,7.00
2018-12-24T07:38:15.544Z,6.90
2018-12-24T07:44:24.096Z,7.00
2018-12-24T07:49:33.403Z,7.00
2018-12-24T07:52:40.633Z,7.00
2018-12-24T07:55:49.212Z,7.00
2018-12-24T07:58:37.203Z,7.00
2018-12-24T08:01:25.185Z,7.00
2018-12-24T08:04:13.076Z,7.00
2018-12-24T08:07:00.955Z,7.00
2018-12-24T08:09:49.917Z,7.00
2018-12-24T08:12:58.611Z,7.10
2018-12-24T08:15:48.464Z,7.10
2018-12-24T08:18:38.220Z,7.00
2018-12-24T08:21:08.239Z,7.00
2018-12-24T08:24:15.464Z,7.00
2018-12-24T08:27:03.337Z,7.00
2018-12-24T08:29:51.613Z,7.10
2018-12-24T08:33:00.421Z,7.10
2018-12-24T08:35:48.304Z,7.10
2018-12-24T08:38:37.930Z,7.10
2018-12-24T08:41:27.438Z,7.10
2018-12-24T08:44:15.300Z,7.10
2018-12-24T08:47:03.701Z,7.10
2018-12-24T08:52:45.718Z,7.10
2018-12-24T08:55:33.653Z,7.10
2018-12-24T08:58:21.589Z,7.20
2018-12-24T09:01:10.882Z,7.10
2018-12-24T09:04:00.065Z,7.10
2018-12-24T09:06:48.963Z,7.10
2018-12-24T09:09:57.761Z,7.20
2018-12-24T09:12:42.185Z,7.20
2018-12-24T09:15:22.614Z,7.20
2018-12-24T09:18:12.166Z,7.20
2018-12-24T09:21:26.209Z,7.20
2018-12-24T09:24:35.411Z,7.20
2018-12-24T09:27:44.008Z,7.20
2018-12-24T09:30:31.892Z,7.20
2018-12-24T09:33:19.758Z,7.20
2018-12-24T09:36:07.807Z,7.20
2018-12-24T09:38:55.729Z,7.30
2018-12-24T09:41:44.515Z,7.30
2018-12-24T09:44:58.943Z,7.30
2018-12-24T09:47:24.008Z,7.30
2018-12-24T09:50:31.286Z,7.40
2018-12-24T09:53:22.666Z,7.30
2018-12-24T09:56:12.414Z,7.40
2018-12-24T09:59:00.280Z,7.30
2018-12-24T10:01:48.290Z,7.40
2018-12-24T10:04:37.674Z,7.40
2018-12-24T10:07:44.858Z,7.40
2018-12-24T10:10:32.753Z,7.40
2018-12-24T10:13:17.831Z,7.50
2018-12-24T10:15:58.328Z,7.40
2018-12-24T10:18:46.346Z,7.40
2018-12-24T10:21:30.582Z,7.40
2018-12-24T10:24:11.810Z,7.40
2018-12-24T10:26:56.265Z,7.40
2018-12-24T10:29:36.975Z,7.40
2018-12-24T10:32:21.477Z,7.40
2018-12-24T10:35:30.879Z,7.30
2018-12-24T10:38:18.813Z,7.40
2018-12-24T10:44:25.637Z,7.30
2018-12-24T10:47:13.547Z,7.30
2018-12-24T10:50:02.780Z,7.30
2018-12-24T10:53:10.056Z,7.30
2018-12-24T10:56:19.189Z,7.30
2018-12-24T10:59:07.112Z,7.30
2018-12-24T11:01:55.007Z,7.20
2018-12-24T11:04:42.897Z,7.20
2018-12-24T11:10:37.877Z,7.20
2018-12-24T11:13:25.795Z,7.20
2018-12-24T11:16:14.057Z,7.20
2018-12-24T11:25:03.634Z,7.00
2018-12-24T11:27:47.791Z,6.90
2018-12-24T11:30:38.275Z,6.80
2018-12-24T11:33:28.129Z,6.70
2018-12-24T11:36:17.805Z,6.70
2018-12-24T11:39:06.123Z,6.80
2018-12-24T11:44:47.514Z,6.70
2018-12-24T11:47:38.788Z,6.80
2018-12-24T11:53:42.937Z,6.90
2018-12-24T11:56:12.863Z,7.10
2018-12-24T11:59:20.632Z,7.10
2018-12-24T12:02:31.503Z,7.20
2018-12-24T12:05:19.471Z,7.30
2018-12-24T12:08:08.046Z,7.30
2018-12-24T12:10:57.757Z,7.30
2018-12-24T12:13:43.234Z,7.30
2018-12-24T12:16:23.941Z,7.30
2018-12-24T12:21:46.974Z,7.30
2018-12-24T12:24:31.811Z,7.20
2018-12-24T12:27:12.673Z,7.30
2018-12-24T12:29:55.138Z,7.20
2018-12-24T12:32:35.714Z,7.20
2018-12-24T12:35:18.281Z,7.30
2018-12-24T12:37:58.948Z,7.30
2018-12-24T12:40:47.874Z,7.30
2018-12-24T12:43:16.673Z,7.40
2018-12-24T12:46:05.324Z,7.40
2018-12-24T12:49:12.646Z,7.30
2018-12-24T12:52:02.057Z,7.30
2018-12-24T12:55:10.782Z,7.40
2018-12-24T12:57:58.742Z,7.50
2018-12-24T13:00:46.640Z,7.50
2018-12-24T13:03:56.153Z,7.50
2018-12-24T13:06:44.105Z,7.50
2018-12-24T13:09:32.053Z,7.60
2018-12-24T13:12:19.920Z,7.60
2018-12-24T13:14:50.626Z,7.40
2018-12-24T13:20:59.048Z,7.20
2018-12-24T13:24:07.533Z,7.10
2018-12-24T13:26:55.583Z,7.00
2018-12-24T13:29:34.674Z,7.00
2018-12-24T13:32:04.231Z,6.90
2018-12-24T13:34:52.520Z,6.90
2018-12-24T13:38:04.789Z,6.90
2018-12-24T13:40:52.686Z,6.80
2018-12-24T13:43:21.414Z,6.80
2018-12-24T13:46:30.373Z,6.80
2018-12-24T13:49:18.304Z,6.70
2018-12-24T13:52:06.710Z,6.60
2018-12-24T13:54:54.614Z,6.60
2018-12-24T13:57:42.737Z,6.60
2018-12-24T14:00:32.309Z,6.60
2018-12-24T14:03:41.223Z,6.70
2018-12-24T14:06:29.159Z,6.80
2018-12-24T14:09:17.191Z,6.90
2018-12-24T14:12:12.474Z,7.00
2018-12-24T14:15:00.532Z,7.20
2018-12-24T14:17:48.526Z,7.20
2018-12-24T14:20:36.471Z,7.20
2018-12-24T14:23:24.337Z,7.20
2018-12-24T14:26:13.166Z,7.10
2018-12-24T14:29:22.373Z,7.00
2018-12-24T14:32:05.941Z,6.80
2018-12-24T14:34:47.187Z,6.70
2018-12-24T14:40:22.303Z,6.60
2018-12-24T14:43:12.540Z,6.50
2018-12-24T14:46:02.272Z,6.50
2018-12-24T14:48:50.388Z,6.50
2018-12-24T14:51:38.307Z,6.40
2018-12-24T14:54:47.542Z,6.40
2018-12-24T15:00:09.964Z,6.30
2018-12-24T15:02:58.263Z,6.20
2018-12-24T15:05:46.232Z,6.20
2018-12-24T15:08:35.133Z,6.20
2018-12-24T15:11:24.315Z,6.20
2018-12-24T15:14:31.773Z,6.20
2018-12-24T15:17:19.660Z,6.30
2018-12-24T15:20:08.378Z,6.20
2018-12-24T15:23:15.861Z,6.10
2018-12-24T15:26:16.905Z,6.00
2018-12-24T15:31:40.235Z,6.00
2018-12-24T15:34:19.113Z,5.80
2018-12-24T15:40:00.774Z,5.70
2018-12-24T15:43:02.863Z,5.60
2018-12-24T15:45:38.414Z,5.50
2018-12-24T15:48:28.013Z,5.40
2018-12-24T15:51:16.117Z,5.30
2018-12-24T15:54:04.278Z,5.10
2018-12-24T15:56:52.173Z,5.10
2018-12-24T15:59:40.343Z,5.10
2018-12-24T16:02:49.452Z,5.10
2018-12-24T16:06:01.294Z,5.10
2018-12-24T16:08:53.226Z,5.00
2018-12-24T16:12:02.593Z,5.00
2018-12-24T16:14:52.300Z,5.00
2018-12-24T16:17:40.191Z,4.90
2018-12-24T16:20:28.374Z,4.80
2018-12-24T16:23:35.610Z,4.60
2018-12-24T16:26:23.499Z,4.50
2018-12-24T16:29:15.325Z,4.50
2018-12-24T16:34:32.419Z,4.40
2018-12-24T16:37:13.028Z,4.40
2018-12-24T16:39:58.347Z,4.30
2018-12-24T16:48:50.337Z,4.20
2018-12-24T16:54:27.038Z,4.10
2018-12-24T17:00:31.510Z,4.00
2018-12-24T17:03:05.858Z,4.00
2018-12-24T17:05:57.664Z,4.00
2018-12-24T17:08:45.821Z,3.90
2018-12-24T17:11:54.422Z,3.80
2018-12-24T17:14:42.429Z,3.80
2018-12-24T17:17:13.192Z,3.70
2018-12-24T17:20:02.011Z,3.70
2018-12-24T17:25:41.598Z,3.80
2018-12-24T17:28:29.934Z,3.70
2018-12-24T17:31:38.657Z,3.60
2018-12-24T17:34:26.576Z,3.60
2018-12-24T17:37:09.930Z,3.50
2018-12-24T17:39:51.023Z,3.40
2018-12-24T17:42:39.412Z,3.40
2018-12-24T17:45:27.064Z,3.20
2018-12-24T17:48:08.363Z,3.30
2018-12-24T17:50:49.495Z,3.20
2018-12-24T17:56:14.100Z,3.10
2018-12-24T17:58:52.981Z,3.10
2018-12-24T18:04:58.705Z,3.10
2018-12-24T18:07:47.038Z,3.10
2018-12-24T18:10:55.864Z,3.00
2018-12-24T18:14:04.657Z,3.00
2018-12-24T18:16:52.564Z,2.90
2018-12-24T18:19:21.330Z,2.90
2018-12-24T18:22:28.562Z,2.80
2018-12-24T18:25:16.457Z,2.80
2018-12-24T18:28:27.121Z,2.80
2018-12-24T18:31:19.910Z,2.80
2018-12-24T18:34:04.757Z,2.70
2018-12-24T18:36:52.755Z,2.70
2018-12-24T18:39:22.287Z,2.70
2018-12-24T18:42:31.265Z,2.60
2018-12-24T18:45:19.251Z,2.60
2018-12-24T18:51:40.135Z,2.50
2018-12-24T18:54:48.804Z,2.50
2018-12-24T18:57:36.749Z,2.60
2018-12-24T19:00:24.702Z,2.50
2018-12-24T19:03:05.736Z,2.50
2018-12-24T19:08:28.737Z,2.40
2018-12-24T19:13:52.445Z,2.30
2018-12-24T19:19:15.398Z,2.30
2018-12-24T19:24:53.083Z,2.10
2018-12-24T19:27:40.973Z,2.20
2018-12-24T19:30:28.952Z,2.40
2018-12-24T19:33:16.865Z,2.30
2018-12-24T19:36:06.016Z,2.30
2018-12-24T19:38:55.483Z,2.20
2018-12-24T19:42:04.285Z,2.20
2018-12-24T19:44:52.268Z,2.20
2018-12-24T19:47:40.165Z,2.10
2018-12-24T19:50:47.411Z,2.00
2018-12-24T19:53:35.459Z,2.00
2018-12-24T19:56:44.826Z,2.10
2018-12-24T19:59:13.513Z,2.10
2018-12-24T20:02:21.218Z,2.00
2018-12-24T20:05:09.146Z,2.00
2018-12-24T20:07:57.044Z,2.00
2018-12-24T20:10:45.615Z,2.00
2018-12-24T20:13:55.650Z,1.90
2018-12-24T20:16:43.607Z,1.80
2018-12-24T20:19:31.651Z,1.90
2018-12-24T20:22:19.601Z,1.90
2018-12-24T20:25:00.263Z,1.90
2018-12-24T20:27:44.854Z,1.80
2018-12-24T20:30:30.963Z,1.80
2018-12-24T20:33:12.036Z,1.80
2018-12-24T20:35:41.531Z,1.70
2018-12-24T20:38:36.829Z,1.70
2018-12-24T20:41:19.378Z,1.70
2018-12-24T20:44:07.856Z,1.90
2018-12-24T20:47:16.658Z,1.80
2018-12-24T20:50:04.638Z,1.80
2018-12-24T20:52:52.512Z,1.70
2018-12-24T20:55:41.600Z,1.60
2018-12-24T20:58:48.903Z,1.50
2018-12-24T21:01:36.957Z,1.50
2018-12-24T21:04:24.978Z,1.40
2018-12-24T21:07:32.249Z,1.40
2018-12-24T21:10:22.002Z,1.30
2018-12-24T21:13:12.633Z,1.40
2018-12-24T21:16:00.598Z,1.40
2018-12-24T21:18:45.726Z,1.60
2018-12-24T21:21:26.254Z,1.60
2018-12-24T21:23:56.477Z,1.60
2018-12-24T21:27:03.726Z,1.50
2018-12-24T21:29:51.656Z,1.50
2018-12-24T21:32:39.616Z,1.50
2018-12-24T21:35:20.450Z,1.60
2018-12-24T21:38:02.106Z,1.60
2018-12-24T21:40:43.378Z,1.50
2018-12-24T21:43:12.220Z,1.50
2018-12-24T21:46:00.860Z,1.50
2018-12-24T21:49:10.364Z,1.50
2018-12-24T21:51:58.224Z,1.50
2018-12-24T21:54:46.414Z,1.50
2018-12-24T21:57:34.734Z,1.50
2018-12-24T22:00:43.377Z,1.50
2018-12-24T22:06:49.030Z,1.50
2018-12-24T22:09:56.953Z,1.50
2018-12-24T22:12:45.870Z,1.50
2018-12-24T22:15:17.414Z,1.50
2018-12-24T22:18:31.993Z,1.50
2018-12-24T22:21:35.923Z,1.50
2018-12-24T22:24:38.939Z,1.50
2018-12-24T22:27:28.535Z,1.50
2018-12-24T22:29:56.535Z,1.50
2018-12-24T22:32:35.419Z,1.50
2018-12-24T22:35:24.900Z,1.50
2018-12-24T22:37:53.507Z,1.50
2018-12-24T22:40:42.206Z,1.60
2018-12-24T22:43:49.399Z,1.70
2018-12-24T22:46:39.547Z,1.60
2018-12-24T22:49:27.571Z,1.70
2018-12-24T22:52:15.590Z,1.60
2018-12-24T22:55:22.820Z,1.70
2018-12-24T22:58:12.388Z,1.80
2018-12-24T23:01:02.011Z,1.80
2018-12-24T23:03:51.275Z,1.90
2018-12-24T23:06:39.207Z,2.00
2018-12-24T23:09:27.204Z,2.00
2018-12-24T23:12:15.748Z,2.00
2018-12-24T23:15:23.020Z,2.10
2018-12-24T23:18:11.055Z,2.10
2018-12-24T23:20:51.468Z,2.10
2018-12-24T23:23:33.408Z,2.20
2018-12-24T23:26:14.134Z,2.20
2018-12-24T23:31:46.522Z,2.30
2018-12-24T23:34:27.412Z,2.40
2018-12-24T23:37:15.586Z,2.40
2018-12-24T23:40:03.448Z,2.40
2018-12-24T23:43:12.181Z,2.40
2018-12-24T23:46:00.068Z,2.40
2018-12-24T23:48:47.516Z,2.40
2018-12-24T23:51:35.454Z,2.40
2018-12-24T23:54:25.529Z,2.50
2018-12-24T23:57:15.032Z,2.60
